sensor_id;sensor_type;location;lat;lon;timestamp;pressure;altitude;pressure_sealevel;temperature;humidity
66742;BME280;53654;54.152;19.432;2022-09-02T00:02:09;102284.56;;;12.98;87.30
66742;BME280;53654;54.152;19.432;2022-09-02T00:04:37;102284.39;;;12.97;87.50
66742;BME280;53654;54.152;19.432;2022-09-02T00:07:05;102281.92;;;12.96;87.79
66742;BME280;53654;54.152;19.432;2022-09-02T00:09:34;102284.90;;;12.95;87.93
66742;BME280;53654;54.152;19.432;2022-09-02T00:12:05;102286.48;;;12.96;88.29
66742;BME280;53654;54.152;19.432;2022-09-02T00:14:36;102286.48;;;12.96;88.62
66742;BME280;53654;54.152;19.432;2022-09-02T00:17:05;102285.45;;;12.98;88.75
66742;BME280;53654;54.152;19.432;2022-09-02T00:19:34;102287.90;;;12.98;88.78
66742;BME280;53654;54.152;19.432;2022-09-02T00:22:03;102289.30;;;13.00;88.97
66742;BME280;53654;54.152;19.432;2022-09-02T00:24:31;102285.29;;;13.01;89.22
66742;BME280;53654;54.152;19.432;2022-09-02T00:26:59;102287.40;;;13.04;89.34
66742;BME280;53654;54.152;19.432;2022-09-02T00:29:28;102287.94;;;13.05;89.19
66742;BME280;53654;54.152;19.432;2022-09-02T00:31:56;102290.92;;;13.06;89.08
66742;BME280;53654;54.152;19.432;2022-09-02T00:34:24;102289.00;;;13.08;88.94
66742;BME280;53654;54.152;19.432;2022-09-02T00:36:52;102291.29;;;13.08;88.79
66742;BME280;53654;54.152;19.432;2022-09-02T00:39:21;102286.55;;;13.08;88.70
66742;BME280;53654;54.152;19.432;2022-09-02T00:41:49;102285.14;;;13.06;88.91
66742;BME280;53654;54.152;19.432;2022-09-02T00:44:20;102285.67;;;13.06;89.01
66742;BME280;53654;54.152;19.432;2022-09-02T00:46:48;102284.96;;;13.06;89.08
66742;BME280;53654;54.152;19.432;2022-09-02T00:49:22;102285.84;;;13.06;89.31
66742;BME280;53654;54.152;19.432;2022-09-02T00:51:58;102283.22;;;13.07;89.24
66742;BME280;53654;54.152;19.432;2022-09-02T00:54:29;102280.41;;;13.08;89.34
66742;BME280;53654;54.152;19.432;2022-09-02T00:57:00;102285.14;;;13.08;89.03
66742;BME280;53654;54.152;19.432;2022-09-02T01:00:24;102283.57;;;13.07;89.09
66742;BME280;53654;54.152;19.432;2022-09-02T01:02:25;102281.61;;;13.04;88.69
66742;BME280;53654;54.152;19.432;2022-09-02T01:04:55;102284.59;;;13.02;88.33
66742;BME280;53654;54.152;19.432;2022-09-02T01:07:28;102281.42;;;13.00;88.38
66742;BME280;53654;54.152;19.432;2022-09-02T01:10:00;102276.16;;;12.98;88.52
66742;BME280;53654;54.152;19.432;2022-09-02T01:12:29;102275.80;;;12.97;88.64
66742;BME280;53654;54.152;19.432;2022-09-02T01:14:58;102273.34;;;12.97;88.85
66742;BME280;53654;54.152;19.432;2022-09-02T01:17:26;102273.86;;;12.95;88.94
66742;BME280;53654;54.152;19.432;2022-09-02T01:20:00;102270.54;;;12.95;89.05
66742;BME280;53654;54.152;19.432;2022-09-02T01:22:31;102268.09;;;12.95;88.93
66742;BME280;53654;54.152;19.432;2022-09-02T01:25:04;102264.57;;;12.94;88.78
66742;BME280;53654;54.152;19.432;2022-09-02T01:27:33;102266.69;;;12.96;88.81
66742;BME280;53654;54.152;19.432;2022-09-02T01:30:03;102271.23;;;12.95;88.83
66742;BME280;53654;54.152;19.432;2022-09-02T01:32:32;102268.60;;;12.94;88.73
66742;BME280;53654;54.152;19.432;2022-09-02T01:35:00;102268.05;;;12.89;88.55
66742;BME280;53654;54.152;19.432;2022-09-02T01:37:29;102268.57;;;12.88;88.68
66742;BME280;53654;54.152;19.432;2022-09-02T01:39:59;102265.75;;;12.86;88.79
66742;BME280;53654;54.152;19.432;2022-09-02T01:42:27;102267.30;;;12.80;88.78
66742;BME280;53654;54.152;19.432;2022-09-02T01:44:55;102263.06;;;12.76;88.56
66742;BME280;53654;54.152;19.432;2022-09-02T01:47:25;102259.88;;;12.72;88.57
66742;BME280;53654;54.152;19.432;2022-09-02T01:49:54;102257.73;;;12.67;88.64
66742;BME280;53654;54.152;19.432;2022-09-02T01:52:24;102259.44;;;12.58;88.66
66742;BME280;53654;54.152;19.432;2022-09-02T01:54:52;102260.60;;;12.49;88.86
66742;BME280;53654;54.152;19.432;2022-09-02T01:57:21;102263.00;;;12.43;88.90
66742;BME280;53654;54.152;19.432;2022-09-02T01:59:52;102267.70;;;12.40;88.96
66742;BME280;53654;54.152;19.432;2022-09-02T02:02:21;102263.81;;;12.36;89.01
66742;BME280;53654;54.152;19.432;2022-09-02T02:04:49;102265.52;;;12.31;89.02
66742;BME280;53654;54.152;19.432;2022-09-02T02:07:19;102266.36;;;12.26;89.13
66742;BME280;53654;54.152;19.432;2022-09-02T02:09:49;102266.16;;;12.24;89.13
66742;BME280;53654;54.152;19.432;2022-09-02T02:12:18;102267.55;;;12.21;89.12
66742;BME280;53654;54.152;19.432;2022-09-02T02:14:47;102268.03;;;12.17;88.94
66742;BME280;53654;54.152;19.432;2022-09-02T02:17:15;102271.11;;;12.11;89.06
66742;BME280;53654;54.152;19.432;2022-09-02T02:19:43;102273.15;;;12.03;89.10
66742;BME280;53654;54.152;19.432;2022-09-02T02:22:11;102266.06;;;11.95;88.96
66742;BME280;53654;54.152;19.432;2022-09-02T02:24:40;102266.34;;;11.87;89.08
66742;BME280;53654;54.152;19.432;2022-09-02T02:27:08;102267.16;;;11.82;89.20
66742;BME280;53654;54.152;19.432;2022-09-02T02:29:37;102265.55;;;11.79;89.35
66742;BME280;53654;54.152;19.432;2022-09-02T02:32:05;102269.70;;;11.77;89.37
66742;BME280;53654;54.152;19.432;2022-09-02T02:34:34;102274.90;;;11.74;89.21
66742;BME280;53654;54.152;19.432;2022-09-02T02:37:03;102272.95;;;11.71;89.34
66742;BME280;53654;54.152;19.432;2022-09-02T02:39:32;102276.43;;;11.70;89.26
66742;BME280;53654;54.152;19.432;2022-09-02T02:42:01;102276.05;;;11.67;89.27
66742;BME280;53654;54.152;19.432;2022-09-02T02:44:29;102288.06;;;11.63;89.14
66742;BME280;53654;54.152;19.432;2022-09-02T02:46:59;102290.80;;;11.57;89.20
66742;BME280;53654;54.152;19.432;2022-09-02T02:49:28;102290.40;;;11.53;89.89
66742;BME280;53654;54.152;19.432;2022-09-02T02:51:56;102291.60;;;11.52;90.37
66742;BME280;53654;54.152;19.432;2022-09-02T02:54:24;102297.02;;;11.52;90.86
66742;BME280;53654;54.152;19.432;2022-09-02T02:57:03;102299.48;;;11.53;91.04
66742;BME280;53654;54.152;19.432;2022-09-02T02:59:31;102296.17;;;11.54;91.01
66742;BME280;53654;54.152;19.432;2022-09-02T03:02:00;102297.07;;;11.56;90.97
66742;BME280;53654;54.152;19.432;2022-09-02T03:04:28;102293.75;;;11.56;91.00
66742;BME280;53654;54.152;19.432;2022-09-02T03:06:57;102287.63;;;11.56;90.94
66742;BME280;53654;54.152;19.432;2022-09-02T03:09:25;102286.75;;;11.55;90.57
66742;BME280;53654;54.152;19.432;2022-09-02T03:11:53;102283.77;;;11.54;90.45
66742;BME280;53654;54.152;19.432;2022-09-02T03:14:22;102284.64;;;11.54;90.45
66742;BME280;53654;54.152;19.432;2022-09-02T03:16:51;102281.51;;;11.55;90.26
66742;BME280;53654;54.152;19.432;2022-09-02T03:19:20;102280.98;;;11.54;90.28
66742;BME280;53654;54.152;19.432;2022-09-02T03:21:49;102277.64;;;11.53;90.81
66742;BME280;53654;54.152;19.432;2022-09-02T03:24:17;102273.60;;;11.52;90.91
66742;BME280;53654;54.152;19.432;2022-09-02T03:26:45;102276.59;;;11.53;90.97
66742;BME280;53654;54.152;19.432;2022-09-02T03:29:13;102270.66;;;11.54;90.93
66742;BME280;53654;54.152;19.432;2022-09-02T03:31:42;102270.48;;;11.55;90.95
66742;BME280;53654;54.152;19.432;2022-09-02T03:34:11;102270.70;;;11.57;91.02
66742;BME280;53654;54.152;19.432;2022-09-02T03:36:40;102269.33;;;11.59;90.96
66742;BME280;53654;54.152;19.432;2022-09-02T03:39:13;102271.45;;;11.62;90.91
66742;BME280;53654;54.152;19.432;2022-09-02T03:41:42;102272.91;;;11.68;90.74
66742;BME280;53654;54.152;19.432;2022-09-02T03:44:11;102275.58;;;11.71;90.49
66742;BME280;53654;54.152;19.432;2022-09-02T03:46:40;102276.13;;;11.74;90.67
66742;BME280;53654;54.152;19.432;2022-09-02T03:49:08;102278.62;;;11.77;90.66
66742;BME280;53654;54.152;19.432;2022-09-02T03:51:40;102277.44;;;11.79;90.71
66742;BME280;53654;54.152;19.432;2022-09-02T03:54:09;102276.60;;;11.82;90.73
66742;BME280;53654;54.152;19.432;2022-09-02T03:56:38;102280.46;;;11.84;90.69
66742;BME280;53654;54.152;19.432;2022-09-02T03:59:07;102280.48;;;11.86;90.40
66742;BME280;53654;54.152;19.432;2022-09-02T04:01:35;102282.25;;;11.87;90.41
66742;BME280;53654;54.152;19.432;2022-09-02T04:04:05;102279.98;;;11.88;90.30
66742;BME280;53654;54.152;19.432;2022-09-02T04:06:34;102286.27;;;11.87;90.37
66742;BME280;53654;54.152;19.432;2022-09-02T04:09:03;102288.71;;;11.87;90.39
66742;BME280;53654;54.152;19.432;2022-09-02T04:11:32;102299.23;;;11.89;90.63
66742;BME280;53654;54.152;19.432;2022-09-02T04:14:00;102302.75;;;11.91;90.71
66742;BME280;53654;54.152;19.432;2022-09-02T04:16:29;102308.55;;;11.93;90.84
66742;BME280;53654;54.152;19.432;2022-09-02T04:19:03;102306.46;;;11.95;90.76
66742;BME280;53654;54.152;19.432;2022-09-02T04:21:34;102307.86;;;11.96;90.58
66742;BME280;53654;54.152;19.432;2022-09-02T04:24:04;102307.90;;;11.99;90.37
66742;BME280;53654;54.152;19.432;2022-09-02T04:26:33;102315.24;;;11.99;90.23
66742;BME280;53654;54.152;19.432;2022-09-02T04:29:04;102321.21;;;12.00;90.17
66742;BME280;53654;54.152;19.432;2022-09-02T04:31:35;102324.19;;;12.01;90.05
66742;BME280;53654;54.152;19.432;2022-09-02T04:34:04;102327.88;;;12.02;90.18
66742;BME280;53654;54.152;19.432;2022-09-02T04:36:33;102328.42;;;12.04;90.54
66742;BME280;53654;54.152;19.432;2022-09-02T04:39:04;102331.78;;;12.08;90.66
66742;BME280;53654;54.152;19.432;2022-09-02T04:41:34;102332.34;;;12.11;90.39
66742;BME280;53654;54.152;19.432;2022-09-02T04:44:05;102334.29;;;12.13;90.26
66742;BME280;53654;54.152;19.432;2022-09-02T04:46:37;102335.52;;;12.14;90.49
66742;BME280;53654;54.152;19.432;2022-09-02T04:49:08;102334.85;;;12.17;90.69
66742;BME280;53654;54.152;19.432;2022-09-02T04:51:37;102336.46;;;12.20;90.45
66742;BME280;53654;54.152;19.432;2022-09-02T04:54:06;102334.39;;;12.22;90.32
66742;BME280;53654;54.152;19.432;2022-09-02T04:56:35;102334.95;;;12.27;90.41
66742;BME280;53654;54.152;19.432;2022-09-02T04:59:05;102334.13;;;12.31;90.58
66742;BME280;53654;54.152;19.432;2022-09-02T05:01:36;102329.58;;;12.32;90.18
66742;BME280;53654;54.152;19.432;2022-09-02T05:04:09;102328.57;;;12.36;90.15
66742;BME280;53654;54.152;19.432;2022-09-02T05:06:40;102332.10;;;12.41;90.20
66742;BME280;53654;54.152;19.432;2022-09-02T05:09:14;102329.88;;;12.45;90.51
66742;BME280;53654;54.152;19.432;2022-09-02T05:11:42;102325.54;;;12.49;90.42
66742;BME280;53654;54.152;19.432;2022-09-02T05:14:11;102331.52;;;12.53;89.94
66742;BME280;53654;54.152;19.432;2022-09-02T05:16:41;102329.63;;;12.57;89.91
66742;BME280;53654;54.152;19.432;2022-09-02T05:19:13;102334.39;;;12.61;89.96
66742;BME280;53654;54.152;19.432;2022-09-02T05:21:45;102329.16;;;12.65;89.71
66742;BME280;53654;54.152;19.432;2022-09-02T05:24:21;102323.21;;;12.65;89.26
66742;BME280;53654;54.152;19.432;2022-09-02T05:26:54;102328.30;;;12.66;89.34
66742;BME280;53654;54.152;19.432;2022-09-02T05:29:22;102326.89;;;12.66;89.56
66742;BME280;53654;54.152;19.432;2022-09-02T05:31:51;102323.59;;;12.68;90.15
66742;BME280;53654;54.152;19.432;2022-09-02T05:34:20;102323.62;;;12.72;90.54
66742;BME280;53654;54.152;19.432;2022-09-02T05:36:50;102323.29;;;12.75;90.48
66742;BME280;53654;54.152;19.432;2022-09-02T05:39:19;102323.66;;;12.77;90.22
66742;BME280;53654;54.152;19.432;2022-09-02T05:41:47;102319.64;;;12.78;90.06
66742;BME280;53654;54.152;19.432;2022-09-02T05:44:16;102316.84;;;12.79;90.21
66742;BME280;53654;54.152;19.432;2022-09-02T05:46:44;102320.55;;;12.83;90.41
66742;BME280;53654;54.152;19.432;2022-09-02T05:49:16;102318.66;;;12.88;90.47
66742;BME280;53654;54.152;19.432;2022-09-02T05:51:57;102321.48;;;12.92;90.42
66742;BME280;53654;54.152;19.432;2022-09-02T05:54:34;102317.83;;;12.96;90.26
66742;BME280;53654;54.152;19.432;2022-09-02T05:57:08;102319.44;;;13.00;90.19
66742;BME280;53654;54.152;19.432;2022-09-02T05:59:39;102320.69;;;13.03;89.72
66742;BME280;53654;54.152;19.432;2022-09-02T06:02:13;102321.05;;;13.06;89.28
66742;BME280;53654;54.152;19.432;2022-09-02T06:04:45;102323.88;;;13.09;89.63
66742;BME280;53654;54.152;19.432;2022-09-02T06:07:15;102330.20;;;13.13;90.00
66742;BME280;53654;54.152;19.432;2022-09-02T06:09:45;102328.52;;;13.17;90.05
66742;BME280;53654;54.152;19.432;2022-09-02T06:12:15;102331.85;;;13.19;89.69
66742;BME280;53654;54.152;19.432;2022-09-02T06:14:47;102329.42;;;13.23;89.99
66742;BME280;53654;54.152;19.432;2022-09-02T06:17:17;102327.35;;;13.29;90.33
66742;BME280;53654;54.152;19.432;2022-09-02T06:19:48;102327.71;;;13.32;90.30
66742;BME280;53654;54.152;19.432;2022-09-02T06:22:22;102330.20;;;13.36;90.29
66742;BME280;53654;54.152;19.432;2022-09-02T06:24:51;102327.75;;;13.38;90.07
66742;BME280;53654;54.152;19.432;2022-09-02T06:27:21;102321.98;;;13.40;89.90
66742;BME280;53654;54.152;19.432;2022-09-02T06:29:51;102316.90;;;13.41;89.84
66742;BME280;53654;54.152;19.432;2022-09-02T06:32:21;102312.89;;;13.47;90.18
66742;BME280;53654;54.152;19.432;2022-09-02T06:34:52;102317.83;;;13.53;90.59
66742;BME280;53654;54.152;19.432;2022-09-02T06:37:21;102323.13;;;13.62;90.75
66742;BME280;53654;54.152;19.432;2022-09-02T06:39:50;102323.34;;;13.72;90.10
66742;BME280;53654;54.152;19.432;2022-09-02T06:42:22;102319.33;;;13.79;89.47
66742;BME280;53654;54.152;19.432;2022-09-02T06:45:09;102322.16;;;13.89;89.41
66742;BME280;53654;54.152;19.432;2022-09-02T06:47:37;102316.73;;;13.95;88.50
66742;BME280;53654;54.152;19.432;2022-09-02T06:50:07;102314.11;;;13.97;88.00
66742;BME280;53654;54.152;19.432;2022-09-02T06:52:36;102311.15;;;14.04;87.77
66742;BME280;53654;54.152;19.432;2022-09-02T06:55:06;102316.96;;;14.14;87.88
66742;BME280;53654;54.152;19.432;2022-09-02T06:57:34;102323.29;;;14.26;87.51
66742;BME280;53654;54.152;19.432;2022-09-02T07:00:08;102328.04;;;14.37;87.16
66742;BME280;53654;54.152;19.432;2022-09-02T07:02:37;102329.31;;;14.43;86.46
66742;BME280;53654;54.152;19.432;2022-09-02T07:05:05;102329.48;;;14.45;85.95
66742;BME280;53654;54.152;19.432;2022-09-02T07:07:38;102335.29;;;14.48;85.59
66742;BME280;53654;54.152;19.432;2022-09-02T07:10:12;102332.83;;;14.49;85.56
66742;BME280;53654;54.152;19.432;2022-09-02T07:12:43;102331.23;;;14.52;85.47
66742;BME280;53654;54.152;19.432;2022-09-02T07:15:15;102331.42;;;14.55;85.58
66742;BME280;53654;54.152;19.432;2022-09-02T07:17:43;102329.14;;;14.56;85.42
66742;BME280;53654;54.152;19.432;2022-09-02T07:20:24;102331.08;;;14.56;85.13
66742;BME280;53654;54.152;19.432;2022-09-02T07:22:56;102333.70;;;14.58;84.81
66742;BME280;53654;54.152;19.432;2022-09-02T07:25:25;102333.00;;;14.57;84.40
66742;BME280;53654;54.152;19.432;2022-09-02T07:27:54;102332.48;;;14.58;84.06
66742;BME280;53654;54.152;19.432;2022-09-02T07:30:23;102334.93;;;14.60;84.42
66742;BME280;53654;54.152;19.432;2022-09-02T07:32:57;102341.61;;;14.64;84.43
66742;BME280;53654;54.152;19.432;2022-09-02T07:35:28;102338.80;;;14.67;84.66
66742;BME280;53654;54.152;19.432;2022-09-02T07:37:56;102340.39;;;14.71;84.87
66742;BME280;53654;54.152;19.432;2022-09-02T07:40:24;102340.20;;;14.75;84.47
66742;BME280;53654;54.152;19.432;2022-09-02T07:42:54;102347.05;;;14.80;84.41
66742;BME280;53654;54.152;19.432;2022-09-02T07:45:24;102347.05;;;14.85;84.26
66742;BME280;53654;54.152;19.432;2022-09-02T07:47:53;102352.83;;;14.90;84.20
66742;BME280;53654;54.152;19.432;2022-09-02T07:50:23;102356.70;;;14.93;84.40
66742;BME280;53654;54.152;19.432;2022-09-02T07:52:56;102366.37;;;14.94;83.76
66742;BME280;53654;54.152;19.432;2022-09-02T07:55:25;102371.98;;;14.92;83.94
66742;BME280;53654;54.152;19.432;2022-09-02T07:57:53;102370.94;;;14.92;84.26
66742;BME280;53654;54.152;19.432;2022-09-02T08:00:23;102376.91;;;14.92;84.91
66742;BME280;53654;54.152;19.432;2022-09-02T08:02:57;102380.42;;;14.94;84.64
66742;BME280;53654;54.152;19.432;2022-09-02T08:05:31;102380.42;;;14.96;83.93
66742;BME280;53654;54.152;19.432;2022-09-02T08:08:00;102378.31;;;14.96;82.93
66742;BME280;53654;54.152;19.432;2022-09-02T08:10:29;102383.93;;;14.96;81.29
66742;BME280;53654;54.152;19.432;2022-09-02T08:12:58;102382.70;;;14.96;81.88
66742;BME280;53654;54.152;19.432;2022-09-02T08:15:29;102389.39;;;14.95;81.13
66742;BME280;53654;54.152;19.432;2022-09-02T08:17:58;102391.49;;;14.96;81.41
66742;BME280;53654;54.152;19.432;2022-09-02T08:20:27;102386.05;;;14.96;81.13
66742;BME280;53654;54.152;19.432;2022-09-02T08:22:57;102390.09;;;14.95;81.05
66742;BME280;53654;54.152;19.432;2022-09-02T08:25:39;102383.94;;;14.94;80.86
66742;BME280;53654;54.152;19.432;2022-09-02T08:28:08;102382.36;;;14.96;81.43
66742;BME280;53654;54.152;19.432;2022-09-02T08:30:36;102382.52;;;14.99;81.15
66742;BME280;53654;54.152;19.432;2022-09-02T08:33:05;102379.71;;;15.05;81.74
66742;BME280;53654;54.152;19.432;2022-09-02T08:35:33;102374.42;;;15.14;82.38
66742;BME280;53654;54.152;19.432;2022-09-02T08:38:01;102376.69;;;15.27;82.47
66742;BME280;53654;54.152;19.432;2022-09-02T08:40:36;102378.77;;;15.35;81.57
66742;BME280;53654;54.152;19.432;2022-09-02T08:45:57;102368.72;;;15.57;81.07
66742;BME280;53654;54.152;19.432;2022-09-02T08:51:04;102357.23;;;15.80;78.90
66742;BME280;53654;54.152;19.432;2022-09-02T08:53:53;102365.81;;;15.88;78.16
66742;BME280;53654;54.152;19.432;2022-09-02T08:56:25;102362.27;;;15.93;77.60
66742;BME280;53654;54.152;19.432;2022-09-02T08:58:56;102365.42;;;15.96;77.92
66742;BME280;53654;54.152;19.432;2022-09-02T09:04:43;102362.20;;;16.05;76.26
66742;BME280;53654;54.152;19.432;2022-09-02T09:11:03;102363.36;;;16.19;75.04
66742;BME280;53654;54.152;19.432;2022-09-02T09:14:48;102362.61;;;16.26;75.21
66742;BME280;53654;54.152;19.432;2022-09-02T09:19:15;102354.42;;;16.37;75.38
66742;BME280;53654;54.152;19.432;2022-09-02T09:21:43;102354.02;;;16.43;75.39
66742;BME280;53654;54.152;19.432;2022-09-02T09:24:31;102353.30;;;16.49;74.30
66742;BME280;53654;54.152;19.432;2022-09-02T09:27:04;102351.85;;;16.52;74.56
66742;BME280;53654;54.152;19.432;2022-09-02T09:29:35;102354.98;;;16.59;75.12
66742;BME280;53654;54.152;19.432;2022-09-02T09:34:59;102356.32;;;16.70;74.08
66742;BME280;53654;54.152;19.432;2022-09-02T09:37:45;102351.00;;;16.74;73.88
66742;BME280;53654;54.152;19.432;2022-09-02T09:45:45;102335.23;;;17.02;72.66
66742;BME280;53654;54.152;19.432;2022-09-02T09:51:09;102335.70;;;17.24;72.04
66742;BME280;53654;54.152;19.432;2022-09-02T09:53:36;102336.35;;;17.29;71.40
66742;BME280;53654;54.152;19.432;2022-09-02T09:56:27;102331.50;;;17.37;71.27
66742;BME280;53654;54.152;19.432;2022-09-02T09:58:54;102332.87;;;17.41;70.03
66742;BME280;53654;54.152;19.432;2022-09-02T10:01:28;102330.02;;;17.43;68.77
66742;BME280;53654;54.152;19.432;2022-09-02T10:06:52;102324.57;;;17.42;68.41
66742;BME280;53654;54.152;19.432;2022-09-02T10:09:34;102325.55;;;17.47;68.77
66742;BME280;53654;54.152;19.432;2022-09-02T10:12:04;102324.40;;;17.55;69.49
66742;BME280;53654;54.152;19.432;2022-09-02T10:14:43;102323.95;;;17.62;68.71
66742;BME280;53654;54.152;19.432;2022-09-02T10:17:26;102322.52;;;17.66;68.18
66742;BME280;53654;54.152;19.432;2022-09-02T10:26:35;102329.02;;;17.82;65.01
66742;BME280;53654;54.152;19.432;2022-09-02T10:37:22;102333.67;;;18.03;64.85
66742;BME280;53654;54.152;19.432;2022-09-02T10:40:13;102333.67;;;18.03;63.65
66742;BME280;53654;54.152;19.432;2022-09-02T10:42:47;102334.02;;;18.03;64.78
66742;BME280;53654;54.152;19.432;2022-09-02T10:45:47;102331.36;;;18.04;63.85
66742;BME280;53654;54.152;19.432;2022-09-02T10:51:17;102327.48;;;18.16;64.09
66742;BME280;53654;54.152;19.432;2022-09-02T10:57:34;102329.98;;;18.25;62.64
66742;BME280;53654;54.152;19.432;2022-09-02T11:02:31;102333.05;;;18.33;61.10
66742;BME280;53654;54.152;19.432;2022-09-02T11:05:17;102329.51;;;18.33;60.16
66742;BME280;53654;54.152;19.432;2022-09-02T11:07:48;102331.77;;;18.36;61.21
66742;BME280;53654;54.152;19.432;2022-09-02T11:10:25;102336.45;;;18.41;60.78
66742;BME280;53654;54.152;19.432;2022-09-02T11:13:03;102336.88;;;18.48;60.84
66742;BME280;53654;54.152;19.432;2022-09-02T11:15:46;102332.72;;;18.54;60.73
66742;BME280;53654;54.152;19.432;2022-09-02T11:21:03;102330.48;;;18.62;58.96
66742;BME280;53654;54.152;19.432;2022-09-02T11:23:36;102324.88;;;18.58;58.47
66742;BME280;53654;54.152;19.432;2022-09-02T11:26:15;102323.62;;;18.59;59.13
66742;BME280;53654;54.152;19.432;2022-09-02T11:37:05;102310.35;;;18.72;56.14
66742;BME280;53654;54.152;19.432;2022-09-02T11:39:40;102309.10;;;18.72;57.32
66742;BME280;53654;54.152;19.432;2022-09-02T11:53:44;102301.23;;;18.55;55.09
66742;BME280;53654;54.152;19.432;2022-09-02T11:56:26;102305.61;;;18.47;54.79
66742;BME280;53654;54.152;19.432;2022-09-02T11:58:55;102302.38;;;18.39;55.17
66742;BME280;53654;54.152;19.432;2022-09-02T12:04:19;102302.66;;;18.33;56.49
66742;BME280;53654;54.152;19.432;2022-09-02T12:18:04;102289.35;;;18.03;56.71
66742;BME280;53654;54.152;19.432;2022-09-02T12:23:06;102285.32;;;18.01;54.19
66742;BME280;53654;54.152;19.432;2022-09-02T12:25:41;102277.89;;;18.01;54.38
66742;BME280;53654;54.152;19.432;2022-09-02T12:35:57;102272.22;;;18.03;53.84
66742;BME280;53654;54.152;19.432;2022-09-02T12:38:31;102265.68;;;18.04;54.27
66742;BME280;53654;54.152;19.432;2022-09-02T12:49:02;102266.39;;;18.04;55.29
66742;BME280;53654;54.152;19.432;2022-09-02T12:51:58;102267.14;;;18.00;55.76
66742;BME280;53654;54.152;19.432;2022-09-02T12:54:44;102265.56;;;18.00;55.84
66742;BME280;53654;54.152;19.432;2022-09-02T12:57:17;102267.88;;;17.99;55.84
66742;BME280;53654;54.152;19.432;2022-09-02T12:59:46;102264.83;;;18.02;56.73
66742;BME280;53654;54.152;19.432;2022-09-02T13:30:19;102258.29;;;17.91;55.14
66742;BME280;53654;54.152;19.432;2022-09-02T13:33:14;102261.20;;;17.86;54.66
66742;BME280;53654;54.152;19.432;2022-09-02T13:35:42;102263.34;;;17.84;53.57
66742;BME280;53654;54.152;19.432;2022-09-02T13:38:12;102265.49;;;17.81;53.76
66742;BME280;53654;54.152;19.432;2022-09-02T13:40:45;102263.59;;;17.79;53.98
66742;BME280;53654;54.152;19.432;2022-09-02T13:45:41;102258.94;;;17.83;53.48
66742;BME280;53654;54.152;19.432;2022-09-02T13:48:15;102257.34;;;17.84;53.02
66742;BME280;53654;54.152;19.432;2022-09-02T13:50:49;102256.45;;;17.84;53.09
66742;BME280;53654;54.152;19.432;2022-09-02T13:53:35;102254.87;;;17.84;53.41
66742;BME280;53654;54.152;19.432;2022-09-02T13:56:26;102251.85;;;17.84;53.09
66742;BME280;53654;54.152;19.432;2022-09-02T13:58:57;102255.54;;;17.86;53.87
66742;BME280;53654;54.152;19.432;2022-09-02T14:01:31;102251.31;;;17.85;53.87
66742;BME280;53654;54.152;19.432;2022-09-02T14:04:05;102244.89;;;17.89;54.54
66742;BME280;53654;54.152;19.432;2022-09-02T14:06:39;102246.23;;;17.94;54.37
66742;BME280;53654;54.152;19.432;2022-09-02T14:09:17;102246.36;;;17.98;54.76
66742;BME280;53654;54.152;19.432;2022-09-02T14:11:48;102245.41;;;18.01;55.24
66742;BME280;53654;54.152;19.432;2022-09-02T14:14:20;102241.16;;;18.02;55.80
66742;BME280;53654;54.152;19.432;2022-09-02T14:16:50;102243.95;;;18.04;55.74
66742;BME280;53654;54.152;19.432;2022-09-02T14:21:49;102244.70;;;18.01;55.38
66742;BME280;53654;54.152;19.432;2022-09-02T14:26:54;102250.46;;;17.95;55.80
66742;BME280;53654;54.152;19.432;2022-09-02T14:29:23;102254.06;;;17.90;55.55
66742;BME280;53654;54.152;19.432;2022-09-02T14:32:10;102254.48;;;17.86;55.43
66742;BME280;53654;54.152;19.432;2022-09-02T14:34:41;102258.29;;;17.79;55.57
66742;BME280;53654;54.152;19.432;2022-09-02T14:37:26;102255.36;;;17.74;55.35
66742;BME280;53654;54.152;19.432;2022-09-02T14:42:45;102253.11;;;17.70;54.68
66742;BME280;53654;54.152;19.432;2022-09-02T14:45:32;102254.40;;;17.66;53.35
66742;BME280;53654;54.152;19.432;2022-09-02T14:48:09;102257.23;;;17.64;53.23
66742;BME280;53654;54.152;19.432;2022-09-02T14:50:43;102251.61;;;17.62;54.05
66742;BME280;53654;54.152;19.432;2022-09-02T14:53:20;102250.39;;;17.61;54.69
66742;BME280;53654;54.152;19.432;2022-09-02T14:55:52;102254.33;;;17.58;54.22
66742;BME280;53654;54.152;19.432;2022-09-02T14:58:23;102255.45;;;17.53;53.69
66742;BME280;53654;54.152;19.432;2022-09-02T15:00:57;102253.94;;;17.47;53.89
66742;BME280;53654;54.152;19.432;2022-09-02T15:03:28;102251.55;;;17.41;53.64
66742;BME280;53654;54.152;19.432;2022-09-02T15:05:57;102254.05;;;17.37;54.18
66742;BME280;53654;54.152;19.432;2022-09-02T15:08:25;102255.49;;;17.36;53.80
66742;BME280;53654;54.152;19.432;2022-09-02T15:10:57;102253.02;;;17.36;53.12
66742;BME280;53654;54.152;19.432;2022-09-02T15:13:28;102250.02;;;17.35;53.00
66742;BME280;53654;54.152;19.432;2022-09-02T15:16:00;102248.80;;;17.34;53.69
66742;BME280;53654;54.152;19.432;2022-09-02T15:18:29;102246.88;;;17.33;53.88
66742;BME280;53654;54.152;19.432;2022-09-02T15:20:58;102243.56;;;17.31;54.27
66742;BME280;53654;54.152;19.432;2022-09-02T15:23:27;102244.98;;;17.29;54.49
66742;BME280;53654;54.152;19.432;2022-09-02T15:26:01;102247.84;;;17.27;53.79
66742;BME280;53654;54.152;19.432;2022-09-02T15:28:29;102244.20;;;17.22;52.80
66742;BME280;53654;54.152;19.432;2022-09-02T15:30:59;102248.50;;;17.17;53.38